sensor_id;sensor_type;location;lat;lon;timestamp;P1;durP1;ratioP1;P2;durP2;ratioP2
8409;SDS011;4242;53.670;10.080;2022-11-15T00:02:12;29.37;;;23.20;;
8409;SDS011;4242;53.670;10.080;2022-11-15T00:04:38;32.53;;;24.73;;
8409;SDS011;4242;53.670;10.080;2022-11-15T00:07:04;34.30;;;23.93;;
8409;SDS011;4242;53.670;10.080;2022-11-15T00:09:30;30.73;;;23.43;;
8409;SDS011;4242;53.670;10.080;2022-11-15T00:11:56;31.23;;;22.97;;
8409;SDS011;4242;53.670;10.080;2022-11-15T00:14:22;34.70;;;23.17;;
8409;SDS011;4242;53.670;10.080;2022-11-15T00:16:48;34.03;;;23.17;;
8409;SDS011;4242;53.670;10.080;2022-11-15T00:19:14;33.67;;;24.17;;
8409;SDS011;4242;53.670;10.080;2022-11-15T00:21:40;33.27;;;23.13;;
8409;SDS011;4242;53.670;10.080;2022-11-15T00:24:06;33.90;;;24.03;;
8409;SDS011;4242;53.670;10.080;2022-11-15T00:26:32;32.10;;;23.00;;
8409;SDS011;4242;53.670;10.080;2022-11-15T00:28:58;30.50;;;22.77;;
8409;SDS011;4242;53.670;10.080;2022-11-15T00:31:24;33.33;;;24.37;;
8409;SDS011;4242;53.670;10.080;2022-11-15T00:33:50;32.07;;;23.37;;
8409;SDS011;4242;53.670;10.080;2022-11-15T00:36:16;32.20;;;23.03;;
8409;SDS011;4242;53.670;10.080;2022-11-15T00:38:42;30.47;;;23.40;;
8409;SDS011;4242;53.670;10.080;2022-11-15T00:41:08;32.67;;;23.67;;
8409;SDS011;4242;53.670;10.080;2022-11-15T00:43:34;30.40;;;23.27;;
8409;SDS011;4242;53.670;10.080;2022-11-15T00:46:00;30.67;;;22.93;;
8409;SDS011;4242;53.670;10.080;2022-11-15T00:48:27;32.70;;;23.40;;
8409;SDS011;4242;53.670;10.080;2022-11-15T00:50:53;35.07;;;25.17;;
8409;SDS011;4242;53.670;10.080;2022-11-15T00:53:19;30.97;;;22.63;;
8409;SDS011;4242;53.670;10.080;2022-11-15T00:55:45;30.33;;;23.10;;
8409;SDS011;4242;53.670;10.080;2022-11-15T00:58:11;31.27;;;23.77;;
8409;SDS011;4242;53.670;10.080;2022-11-15T01:00:37;31.73;;;22.97;;
8409;SDS011;4242;53.670;10.080;2022-11-15T01:03:03;31.43;;;22.97;;
8409;SDS011;4242;53.670;10.080;2022-11-15T01:05:29;31.50;;;22.57;;
8409;SDS011;4242;53.670;10.080;2022-11-15T01:07:56;32.93;;;23.00;;
8409;SDS011;4242;53.670;10.080;2022-11-15T01:10:22;29.63;;;22.50;;
8409;SDS011;4242;53.670;10.080;2022-11-15T01:12:48;37.07;;;24.43;;
8409;SDS011;4242;53.670;10.080;2022-11-15T01:15:15;29.57;;;23.10;;
8409;SDS011;4242;53.670;10.080;2022-11-15T01:17:41;29.10;;;22.50;;
8409;SDS011;4242;53.670;10.080;2022-11-15T01:20:07;32.17;;;24.53;;
8409;SDS011;4242;53.670;10.080;2022-11-15T01:22:33;31.47;;;22.87;;
8409;SDS011;4242;53.670;10.080;2022-11-15T01:24:59;29.33;;;22.60;;
8409;SDS011;4242;53.670;10.080;2022-11-15T01:27:25;31.67;;;23.67;;
8409;SDS011;4242;53.670;10.080;2022-11-15T01:29:51;31.57;;;24.27;;
8409;SDS011;4242;53.670;10.080;2022-11-15T01:32:17;30.77;;;23.57;;
8409;SDS011;4242;53.670;10.080;2022-11-15T01:34:43;34.07;;;24.40;;
8409;SDS011;4242;53.670;10.080;2022-11-15T01:37:09;30.20;;;22.83;;
8409;SDS011;4242;53.670;10.080;2022-11-15T01:39:35;30.50;;;22.40;;
8409;SDS011;4242;53.670;10.080;2022-11-15T01:42:01;32.20;;;22.73;;
8409;SDS011;4242;53.670;10.080;2022-11-15T01:46:57;31.87;;;24.57;;
8409;SDS011;4242;53.670;10.080;2022-11-15T01:49:24;32.60;;;23.60;;
8409;SDS011;4242;53.670;10.080;2022-11-15T01:51:51;32.60;;;22.90;;
8409;SDS011;4242;53.670;10.080;2022-11-15T01:54:17;28.47;;;22.77;;
8409;SDS011;4242;53.670;10.080;2022-11-15T01:56:48;27.53;;;22.10;;
8409;SDS011;4242;53.670;10.080;2022-11-15T01:59:15;28.37;;;21.60;;
8409;SDS011;4242;53.670;10.080;2022-11-15T02:01:42;29.30;;;22.00;;
8409;SDS011;4242;53.670;10.080;2022-11-15T02:06:34;33.37;;;23.27;;
8409;SDS011;4242;53.670;10.080;2022-11-15T02:09:00;30.60;;;22.73;;
8409;SDS011;4242;53.670;10.080;2022-11-15T02:11:27;30.40;;;23.03;;
8409;SDS011;4242;53.670;10.080;2022-11-15T02:13:53;29.10;;;22.67;;
8409;SDS011;4242;53.670;10.080;2022-11-15T02:18:50;28.40;;;21.67;;
8409;SDS011;4242;53.670;10.080;2022-11-15T02:21:21;30.03;;;23.27;;
8409;SDS011;4242;53.670;10.080;2022-11-15T02:26:33;29.50;;;22.77;;
8409;SDS011;4242;53.670;10.080;2022-11-15T02:29:07;30.30;;;22.83;;
8409;SDS011;4242;53.670;10.080;2022-11-15T02:41:57;33.43;;;22.93;;
8409;SDS011;4242;53.670;10.080;2022-11-15T02:44:27;26.37;;;20.87;;
8409;SDS011;4242;53.670;10.080;2022-11-15T02:46:57;27.43;;;21.13;;
8409;SDS011;4242;53.670;10.080;2022-11-15T02:49:43;29.43;;;21.67;;
8409;SDS011;4242;53.670;10.080;2022-11-15T02:52:14;28.40;;;22.40;;
8409;SDS011;4242;53.670;10.080;2022-11-15T02:54:40;28.57;;;21.47;;
8409;SDS011;4242;53.670;10.080;2022-11-15T02:57:07;29.07;;;21.27;;
8409;SDS011;4242;53.670;10.080;2022-11-15T02:59:44;27.13;;;21.33;;
8409;SDS011;4242;53.670;10.080;2022-11-15T03:02:28;28.20;;;20.73;;
8409;SDS011;4242;53.670;10.080;2022-11-15T03:04:58;25.13;;;19.20;;
8409;SDS011;4242;53.670;10.080;2022-11-15T03:07:30;27.53;;;21.80;;
8409;SDS011;4242;53.670;10.080;2022-11-15T03:17:23;27.43;;;20.93;;
8409;SDS011;4242;53.670;10.080;2022-11-15T03:19:50;26.20;;;20.40;;
8409;SDS011;4242;53.670;10.080;2022-11-15T03:22:19;28.43;;;20.90;;
8409;SDS011;4242;53.670;10.080;2022-11-15T03:24:47;26.57;;;20.27;;
8409;SDS011;4242;53.670;10.080;2022-11-15T03:27:17;25.87;;;19.83;;
8409;SDS011;4242;53.670;10.080;2022-11-15T03:29:52;29.87;;;20.63;;
8409;SDS011;4242;53.670;10.080;2022-11-15T03:32:22;26.47;;;19.33;;
8409;SDS011;4242;53.670;10.080;2022-11-15T03:34:57;27.70;;;20.47;;
8409;SDS011;4242;53.670;10.080;2022-11-15T03:37:25;27.47;;;19.97;;
8409;SDS011;4242;53.670;10.080;2022-11-15T03:39:53;22.77;;;18.40;;
8409;SDS011;4242;53.670;10.080;2022-11-15T03:42:25;24.23;;;18.93;;
8409;SDS011;4242;53.670;10.080;2022-11-15T03:50:08;22.93;;;18.50;;
8409;SDS011;4242;53.670;10.080;2022-11-15T03:52:36;24.43;;;18.97;;
8409;SDS011;4242;53.670;10.080;2022-11-15T03:55:03;21.83;;;18.93;;
8409;SDS011;4242;53.670;10.080;2022-11-15T03:57:29;24.73;;;18.77;;
8409;SDS011;4242;53.670;10.080;2022-11-15T03:59:55;25.97;;;19.13;;
8409;SDS011;4242;53.670;10.080;2022-11-15T04:02:21;27.27;;;18.47;;
8409;SDS011;4242;53.670;10.080;2022-11-15T04:04:47;26.87;;;20.43;;
8409;SDS011;4242;53.670;10.080;2022-11-15T04:07:13;23.53;;;19.80;;
8409;SDS011;4242;53.670;10.080;2022-11-15T04:09:39;25.33;;;20.17;;
8409;SDS011;4242;53.670;10.080;2022-11-15T04:12:24;22.47;;;18.23;;
8409;SDS011;4242;53.670;10.080;2022-11-15T04:15:17;27.10;;;19.50;;
8409;SDS011;4242;53.670;10.080;2022-11-15T04:17:46;24.90;;;18.53;;
8409;SDS011;4242;53.670;10.080;2022-11-15T04:20:16;21.37;;;17.67;;
8409;SDS011;4242;53.670;10.080;2022-11-15T04:23:02;24.17;;;18.50;;
8409;SDS011;4242;53.670;10.080;2022-11-15T04:25:49;22.83;;;18.40;;
8409;SDS011;4242;53.670;10.080;2022-11-15T04:28:15;22.67;;;17.83;;
8409;SDS011;4242;53.670;10.080;2022-11-15T04:30:41;23.13;;;18.43;;
8409;SDS011;4242;53.670;10.080;2022-11-15T04:33:07;22.53;;;17.90;;
8409;SDS011;4242;53.670;10.080;2022-11-15T04:35:33;23.13;;;18.37;;
8409;SDS011;4242;53.670;10.080;2022-11-15T04:37:59;20.30;;;17.73;;
8409;SDS011;4242;53.670;10.080;2022-11-15T04:40:26;20.53;;;17.60;;
8409;SDS011;4242;53.670;10.080;2022-11-15T04:42:52;20.00;;;16.67;;
8409;SDS011;4242;53.670;10.080;2022-11-15T04:45:18;22.67;;;17.00;;
8409;SDS011;4242;53.670;10.080;2022-11-15T04:47:44;24.20;;;19.37;;
8409;SDS011;4242;53.670;10.080;2022-11-15T04:50:11;26.47;;;18.23;;
8409;SDS011;4242;53.670;10.080;2022-11-15T04:52:43;22.30;;;17.40;;
8409;SDS011;4242;53.670;10.080;2022-11-15T04:55:15;20.03;;;16.47;;
8409;SDS011;4242;53.670;10.080;2022-11-15T04:57:41;19.60;;;16.33;;
8409;SDS011;4242;53.670;10.080;2022-11-15T05:00:08;21.87;;;16.60;;
8409;SDS011;4242;53.670;10.080;2022-11-15T05:02:34;19.10;;;16.40;;
8409;SDS011;4242;53.670;10.080;2022-11-15T05:05:29;18.40;;;15.90;;
8409;SDS011;4242;53.670;10.080;2022-11-15T05:07:55;20.27;;;17.17;;
8409;SDS011;4242;53.670;10.080;2022-11-15T05:10:21;20.33;;;16.97;;
8409;SDS011;4242;53.670;10.080;2022-11-15T05:12:47;20.90;;;16.97;;
8409;SDS011;4242;53.670;10.080;2022-11-15T05:15:13;20.97;;;17.00;;
8409;SDS011;4242;53.670;10.080;2022-11-15T05:17:39;23.43;;;16.80;;
8409;SDS011;4242;53.670;10.080;2022-11-15T05:20:05;20.97;;;16.80;;
8409;SDS011;4242;53.670;10.080;2022-11-15T05:22:32;19.40;;;16.23;;
8409;SDS011;4242;53.670;10.080;2022-11-15T05:24:58;20.27;;;15.93;;
8409;SDS011;4242;53.670;10.080;2022-11-15T05:27:24;19.77;;;16.57;;
8409;SDS011;4242;53.670;10.080;2022-11-15T05:29:50;23.63;;;17.67;;
8409;SDS011;4242;53.670;10.080;2022-11-15T05:32:16;22.20;;;17.77;;
8409;SDS011;4242;53.670;10.080;2022-11-15T05:34:42;20.27;;;16.37;;
8409;SDS011;4242;53.670;10.080;2022-11-15T05:37:08;23.43;;;17.93;;
8409;SDS011;4242;53.670;10.080;2022-11-15T05:39:34;21.63;;;17.10;;
8409;SDS011;4242;53.670;10.080;2022-11-15T05:42:13;23.70;;;17.70;;
8409;SDS011;4242;53.670;10.080;2022-11-15T05:44:40;20.57;;;17.07;;
8409;SDS011;4242;53.670;10.080;2022-11-15T05:47:08;23.13;;;17.90;;
8409;SDS011;4242;53.670;10.080;2022-11-15T05:49:34;23.87;;;17.93;;
8409;SDS011;4242;53.670;10.080;2022-11-15T05:52:03;24.37;;;18.27;;
8409;SDS011;4242;53.670;10.080;2022-11-15T05:54:30;23.53;;;18.17;;
8409;SDS011;4242;53.670;10.080;2022-11-15T05:56:57;22.87;;;18.00;;
8409;SDS011;4242;53.670;10.080;2022-11-15T05:59:24;23.73;;;17.87;;
8409;SDS011;4242;53.670;10.080;2022-11-15T06:01:51;23.97;;;18.00;;
8409;SDS011;4242;53.670;10.080;2022-11-15T06:04:17;28.10;;;18.43;;
8409;SDS011;4242;53.670;10.080;2022-11-15T06:06:43;23.40;;;19.07;;
8409;SDS011;4242;53.670;10.080;2022-11-15T06:09:09;27.23;;;18.67;;
8409;SDS011;4242;53.670;10.080;2022-11-15T06:11:35;23.93;;;18.73;;
8409;SDS011;4242;53.670;10.080;2022-11-15T06:14:01;23.17;;;17.80;;
8409;SDS011;4242;53.670;10.080;2022-11-15T06:16:27;23.40;;;18.10;;
8409;SDS011;4242;53.670;10.080;2022-11-15T06:18:52;23.20;;;17.37;;
8409;SDS011;4242;53.670;10.080;2022-11-15T06:21:19;22.07;;;17.40;;
8409;SDS011;4242;53.670;10.080;2022-11-15T06:23:45;24.67;;;18.27;;
8409;SDS011;4242;53.670;10.080;2022-11-15T06:26:11;25.03;;;19.67;;
8409;SDS011;4242;53.670;10.080;2022-11-15T06:28:37;25.00;;;18.30;;
8409;SDS011;4242;53.670;10.080;2022-11-15T06:31:07;22.80;;;17.77;;
8409;SDS011;4242;53.670;10.080;2022-11-15T06:33:33;25.30;;;17.93;;
8409;SDS011;4242;53.670;10.080;2022-11-15T06:36:06;21.30;;;17.23;;
8409;SDS011;4242;53.670;10.080;2022-11-15T06:38:32;21.00;;;17.80;;
8409;SDS011;4242;53.670;10.080;2022-11-15T06:41:02;23.27;;;17.57;;
8409;SDS011;4242;53.670;10.080;2022-11-15T06:43:29;23.63;;;18.37;;
8409;SDS011;4242;53.670;10.080;2022-11-15T06:45:55;23.93;;;17.83;;
8409;SDS011;4242;53.670;10.080;2022-11-15T06:48:21;22.60;;;18.07;;
8409;SDS011;4242;53.670;10.080;2022-11-15T06:50:53;21.63;;;17.63;;
8409;SDS011;4242;53.670;10.080;2022-11-15T06:53:20;21.17;;;16.90;;
8409;SDS011;4242;53.670;10.080;2022-11-15T06:55:46;24.77;;;18.17;;
8409;SDS011;4242;53.670;10.080;2022-11-15T06:58:12;22.43;;;17.60;;
8409;SDS011;4242;53.670;10.080;2022-11-15T07:00:38;24.60;;;19.30;;
8409;SDS011;4242;53.670;10.080;2022-11-15T07:03:05;22.10;;;17.80;;
8409;SDS011;4242;53.670;10.080;2022-11-15T07:05:31;22.70;;;17.50;;
8409;SDS011;4242;53.670;10.080;2022-11-15T07:07:57;23.33;;;17.87;;
8409;SDS011;4242;53.670;10.080;2022-11-15T07:10:24;27.30;;;18.57;;
8409;SDS011;4242;53.670;10.080;2022-11-15T07:12:54;22.67;;;18.50;;
8409;SDS011;4242;53.670;10.080;2022-11-15T07:15:21;27.67;;;18.87;;
8409;SDS011;4242;53.670;10.080;2022-11-15T07:17:47;21.33;;;17.67;;
8409;SDS011;4242;53.670;10.080;2022-11-15T07:20:13;22.97;;;17.07;;
8409;SDS011;4242;53.670;10.080;2022-11-15T07:22:39;20.13;;;17.00;;
8409;SDS011;4242;53.670;10.080;2022-11-15T07:25:06;21.47;;;17.67;;
8409;SDS011;4242;53.670;10.080;2022-11-15T07:27:32;23.63;;;17.63;;
8409;SDS011;4242;53.670;10.080;2022-11-15T07:29:58;22.00;;;17.90;;
8409;SDS011;4242;53.670;10.080;2022-11-15T07:32:24;23.47;;;17.63;;
8409;SDS011;4242;53.670;10.080;2022-11-15T07:34:50;24.67;;;17.83;;
8409;SDS011;4242;53.670;10.080;2022-11-15T07:37:16;24.00;;;17.93;;
8409;SDS011;4242;53.670;10.080;2022-11-15T07:39:42;22.80;;;17.23;;
8409;SDS011;4242;53.670;10.080;2022-11-15T07:42:08;23.13;;;17.57;;
8409;SDS011;4242;53.670;10.080;2022-11-15T07:44:53;21.77;;;17.20;;
8409;SDS011;4242;53.670;10.080;2022-11-15T07:47:19;24.43;;;17.77;;
8409;SDS011;4242;53.670;10.080;2022-11-15T07:49:45;21.50;;;17.97;;
8409;SDS011;4242;53.670;10.080;2022-11-15T07:52:12;19.87;;;17.13;;
8409;SDS011;4242;53.670;10.080;2022-11-15T07:54:38;23.17;;;18.33;;
8409;SDS011;4242;53.670;10.080;2022-11-15T07:57:04;21.13;;;16.70;;
8409;SDS011;4242;53.670;10.080;2022-11-15T07:59:32;20.23;;;16.03;;
8409;SDS011;4242;53.670;10.080;2022-11-15T08:01:58;24.53;;;18.27;;
8409;SDS011;4242;53.670;10.080;2022-11-15T08:04:24;20.80;;;16.97;;
8409;SDS011;4242;53.670;10.080;2022-11-15T08:06:50;20.67;;;16.50;;
8409;SDS011;4242;53.670;10.080;2022-11-15T08:09:16;21.53;;;17.47;;
8409;SDS011;4242;53.670;10.080;2022-11-15T08:11:42;21.63;;;15.40;;
8409;SDS011;4242;53.670;10.080;2022-11-15T08:14:08;22.37;;;16.13;;
8409;SDS011;4242;53.670;10.080;2022-11-15T08:16:34;17.77;;;14.57;;
8409;SDS011;4242;53.670;10.080;2022-11-15T08:19:01;18.83;;;15.30;;
8409;SDS011;4242;53.670;10.080;2022-11-15T08:21:27;21.87;;;16.80;;
8409;SDS011;4242;53.670;10.080;2022-11-15T08:23:53;20.23;;;15.80;;
8409;SDS011;4242;53.670;10.080;2022-11-15T08:26:19;21.07;;;18.77;;
8409;SDS011;4242;53.670;10.080;2022-11-15T08:28:45;20.37;;;17.77;;
8409;SDS011;4242;53.670;10.080;2022-11-15T08:31:14;22.00;;;17.03;;
8409;SDS011;4242;53.670;10.080;2022-11-15T08:33:41;20.13;;;15.87;;
8409;SDS011;4242;53.670;10.080;2022-11-15T08:36:15;17.93;;;14.93;;
8409;SDS011;4242;53.670;10.080;2022-11-15T08:38:41;17.33;;;14.77;;
8409;SDS011;4242;53.670;10.080;2022-11-15T08:41:16;19.30;;;15.97;;
8409;SDS011;4242;53.670;10.080;2022-11-15T08:43:45;19.83;;;15.70;;
8409;SDS011;4242;53.670;10.080;2022-11-15T08:46:12;18.73;;;15.60;;
8409;SDS011;4242;53.670;10.080;2022-11-15T08:48:39;22.20;;;16.33;;
8409;SDS011;4242;53.670;10.080;2022-11-15T08:51:05;20.63;;;15.30;;
8409;SDS011;4242;53.670;10.080;2022-11-15T08:53:31;19.30;;;14.70;;
8409;SDS011;4242;53.670;10.080;2022-11-15T08:55:57;18.70;;;14.83;;
8409;SDS011;4242;53.670;10.080;2022-11-15T08:58:23;18.37;;;14.87;;
8409;SDS011;4242;53.670;10.080;2022-11-15T09:00:49;17.63;;;15.13;;
8409;SDS011;4242;53.670;10.080;2022-11-15T09:03:15;18.60;;;14.43;;
8409;SDS011;4242;53.670;10.080;2022-11-15T09:05:41;17.10;;;14.97;;
8409;SDS011;4242;53.670;10.080;2022-11-15T09:08:07;21.47;;;14.63;;
8409;SDS011;4242;53.670;10.080;2022-11-15T09:10:34;19.70;;;14.97;;
8409;SDS011;4242;53.670;10.080;2022-11-15T09:13:01;22.63;;;15.20;;
8409;SDS011;4242;53.670;10.080;2022-11-15T09:15:27;22.77;;;15.63;;
8409;SDS011;4242;53.670;10.080;2022-11-15T09:17:53;18.30;;;15.50;;
8409;SDS011;4242;53.670;10.080;2022-11-15T09:20:19;19.73;;;15.37;;
8409;SDS011;4242;53.670;10.080;2022-11-15T09:22:45;16.17;;;14.20;;
8409;SDS011;4242;53.670;10.080;2022-11-15T09:25:30;21.27;;;13.70;;
8409;SDS011;4242;53.670;10.080;2022-11-15T09:28:05;18.60;;;13.33;;
8409;SDS011;4242;53.670;10.080;2022-11-15T09:30:56;19.77;;;14.10;;
8409;SDS011;4242;53.670;10.080;2022-11-15T09:45:39;16.80;;;12.67;;
8409;SDS011;4242;53.670;10.080;2022-11-15T09:50:45;15.90;;;12.50;;
8409;SDS011;4242;53.670;10.080;2022-11-15T09:53:13;19.13;;;13.83;;
8409;SDS011;4242;53.670;10.080;2022-11-15T09:55:53;14.87;;;13.27;;
8409;SDS011;4242;53.670;10.080;2022-11-15T10:00:50;14.20;;;12.27;;
8409;SDS011;4242;53.670;10.080;2022-11-15T10:03:29;18.47;;;13.30;;
8409;SDS011;4242;53.670;10.080;2022-11-15T10:06:00;13.03;;;11.67;;
8409;SDS011;4242;53.670;10.080;2022-11-15T10:08:46;13.53;;;11.77;;
8409;SDS011;4242;53.670;10.080;2022-11-15T10:11:17;13.87;;;12.13;;
8409;SDS011;4242;53.670;10.080;2022-11-15T10:13:44;15.03;;;12.50;;
8409;SDS011;4242;53.670;10.080;2022-11-15T10:21:18;16.30;;;12.33;;
8409;SDS011;4242;53.670;10.080;2022-11-15T10:23:45;14.90;;;12.87;;
8409;SDS011;4242;53.670;10.080;2022-11-15T10:26:13;13.17;;;11.73;;
8409;SDS011;4242;53.670;10.080;2022-11-15T10:28:39;14.57;;;12.47;;
8409;SDS011;4242;53.670;10.080;2022-11-15T10:31:20;14.10;;;12.07;;
8409;SDS011;4242;53.670;10.080;2022-11-15T10:36:16;14.10;;;12.60;;
8409;SDS011;4242;53.670;10.080;2022-11-15T10:41:39;13.03;;;11.33;;
8409;SDS011;4242;53.670;10.080;2022-11-15T10:46:34;20.50;;;12.93;;
8409;SDS011;4242;53.670;10.080;2022-11-15T10:49:12;17.30;;;12.33;;
8409;SDS011;4242;53.670;10.080;2022-11-15T10:51:43;12.83;;;11.53;;
8409;SDS011;4242;53.670;10.080;2022-11-15T10:54:10;12.60;;;11.30;;
8409;SDS011;4242;53.670;10.080;2022-11-15T10:56:38;12.47;;;11.10;;
8409;SDS011;4242;53.670;10.080;2022-11-15T10:59:04;14.10;;;11.63;;
8409;SDS011;4242;53.670;10.080;2022-11-15T11:01:30;13.00;;;11.60;;
8409;SDS011;4242;53.670;10.080;2022-11-15T11:06:24;15.50;;;11.27;;
8409;SDS011;4242;53.670;10.080;2022-11-15T11:09:09;15.80;;;10.63;;
8409;SDS011;4242;53.670;10.080;2022-11-15T11:11:46;13.10;;;10.73;;
8409;SDS011;4242;53.670;10.080;2022-11-15T11:14:18;11.63;;;10.30;;
8409;SDS011;4242;53.670;10.080;2022-11-15T11:16:50;12.50;;;10.77;;
8409;SDS011;4242;53.670;10.080;2022-11-15T11:19:25;10.70;;;9.37;;
8409;SDS011;4242;53.670;10.080;2022-11-15T11:22:04;12.50;;;9.80;;
8409;SDS011;4242;53.670;10.080;2022-11-15T11:24:42;11.67;;;9.80;;
8409;SDS011;4242;53.670;10.080;2022-11-15T11:30:08;10.07;;;9.07;;
8409;SDS011;4242;53.670;10.080;2022-11-15T11:38:02;10.93;;;9.83;;
8409;SDS011;4242;53.670;10.080;2022-11-15T11:40:44;10.30;;;9.30;;
8409;SDS011;4242;53.670;10.080;2022-11-15T11:51:04;11.40;;;9.13;;
8409;SDS011;4242;53.670;10.080;2022-11-15T11:53:31;11.17;;;8.27;;
8409;SDS011;4242;53.670;10.080;2022-11-15T11:56:04;11.97;;;9.17;;
8409;SDS011;4242;53.670;10.080;2022-11-15T11:58:35;10.47;;;8.50;;
8409;SDS011;4242;53.670;10.080;2022-11-15T12:01:37;10.17;;;9.17;;
8409;SDS011;4242;53.670;10.080;2022-11-15T12:06:31;9.70;;;8.70;;
8409;SDS011;4242;53.670;10.080;2022-11-15T12:09:02;9.10;;;8.17;;
8409;SDS011;4242;53.670;10.080;2022-11-15T12:11:35;10.00;;;8.80;;
8409;SDS011;4242;53.670;10.080;2022-11-15T12:14:04;11.73;;;8.50;;
8409;SDS011;4242;53.670;10.080;2022-11-15T12:16:32;11.23;;;8.60;;
8409;SDS011;4242;53.670;10.080;2022-11-15T12:18:59;11.17;;;8.80;;
8409;SDS011;4242;53.670;10.080;2022-11-15T12:24:00;9.33;;;8.10;;
8409;SDS011;4242;53.670;10.080;2022-11-15T12:26:31;9.30;;;8.33;;
8409;SDS011;4242;53.670;10.080;2022-11-15T12:29:03;9.37;;;8.13;;
8409;SDS011;4242;53.670;10.080;2022-11-15T12:31:40;10.33;;;8.30;;
8409;SDS011;4242;53.670;10.080;2022-11-15T12:36:48;9.53;;;8.33;;
8409;SDS011;4242;53.670;10.080;2022-11-15T12:39:15;9.70;;;8.70;;
8409;SDS011;4242;53.670;10.080;2022-11-15T12:41:42;9.00;;;8.07;;
8409;SDS011;4242;53.670;10.080;2022-11-15T13:04:46;8.10;;;7.27;;
8409;SDS011;4242;53.670;10.080;2022-11-15T13:09:57;8.17;;;7.30;;
8409;SDS011;4242;53.670;10.080;2022-11-15T13:15:01;8.63;;;7.27;;
8409;SDS011;4242;53.670;10.080;2022-11-15T13:17:50;7.93;;;7.23;;
8409;SDS011;4242;53.670;10.080;2022-11-15T13:20:27;8.37;;;7.10;;
8409;SDS011;4242;53.670;10.080;2022-11-15T13:23:09;7.13;;;6.43;;
8409;SDS011;4242;53.670;10.080;2022-11-15T13:28:18;9.20;;;6.50;;
8409;SDS011;4242;53.670;10.080;2022-11-15T13:30:52;7.43;;;6.67;;
8409;SDS011;4242;53.670;10.080;2022-11-15T13:33:23;8.13;;;6.70;;
8409;SDS011;4242;53.670;10.080;2022-11-15T13:36:00;7.70;;;6.90;;
8409;SDS011;4242;53.670;10.080;2022-11-15T13:38:33;10.00;;;6.73;;
8409;SDS011;4242;53.670;10.080;2022-11-15T13:41:10;7.70;;;6.83;;
8409;SDS011;4242;53.670;10.080;2022-11-15T13:43:37;7.37;;;6.37;;
8409;SDS011;4242;53.670;10.080;2022-11-15T13:46:06;7.83;;;6.70;;
8409;SDS011;4242;53.670;10.080;2022-11-15T13:48:33;7.03;;;6.40;;
8409;SDS011;4242;53.670;10.080;2022-11-15T13:50:59;7.53;;;6.83;;
8409;SDS011;4242;53.670;10.080;2022-11-15T13:53:26;7.30;;;6.60;;
8409;SDS011;4242;53.670;10.080;2022-11-15T13:55:52;11.57;;;7.07;;
8409;SDS011;4242;53.670;10.080;2022-11-15T13:58:21;7.93;;;6.43;;
8409;SDS011;4242;53.670;10.080;2022-11-15T14:00:47;8.67;;;6.73;;
8409;SDS011;4242;53.670;10.080;2022-11-15T14:03:26;8.53;;;6.70;;
8409;SDS011;4242;53.670;10.080;2022-11-15T14:06:12;7.27;;;6.00;;
8409;SDS011;4242;53.670;10.080;2022-11-15T14:08:40;6.70;;;6.10;;
8409;SDS011;4242;53.670;10.080;2022-11-15T14:11:07;7.07;;;6.27;;
8409;SDS011;4242;53.670;10.080;2022-11-15T14:13:33;6.60;;;6.00;;
8409;SDS011;4242;53.670;10.080;2022-11-15T14:16:13;6.87;;;6.27;;
8409;SDS011;4242;53.670;10.080;2022-11-15T14:18:47;8.17;;;6.73;;
8409;SDS011;4242;53.670;10.080;2022-11-15T14:21:14;9.03;;;6.70;;
8409;SDS011;4242;53.670;10.080;2022-11-15T14:23:40;7.03;;;6.33;;
8409;SDS011;4242;53.670;10.080;2022-11-15T14:26:10;8.40;;;6.93;;
8409;SDS011;4242;53.670;10.080;2022-11-15T14:28:37;11.53;;;6.83;;
8409;SDS011;4242;53.670;10.080;2022-11-15T14:31:11;7.70;;;6.90;;
8409;SDS011;4242;53.670;10.080;2022-11-15T14:33:38;7.30;;;6.60;;
8409;SDS011;4242;53.670;10.080;2022-11-15T14:38:31;7.70;;;6.90;;
8409;SDS011;4242;53.670;10.080;2022-11-15T14:40:57;7.43;;;6.73;;
8409;SDS011;4242;53.670;10.080;2022-11-15T14:43:23;8.10;;;6.67;;
8409;SDS011;4242;53.670;10.080;2022-11-15T14:45:49;6.80;;;6.10;;
8409;SDS011;4242;53.670;10.080;2022-11-15T14:48:15;7.53;;;6.20;;
8409;SDS011;4242;53.670;10.080;2022-11-15T14:50:41;8.37;;;6.43;;
8409;SDS011;4242;53.670;10.080;2022-11-15T14:53:11;6.80;;;6.20;;
8409;SDS011;4242;53.670;10.080;2022-11-15T14:55:38;7.40;;;6.70;;
8409;SDS011;4242;53.670;10.080;2022-11-15T14:58:04;6.90;;;6.30;;
8409;SDS011;4242;53.670;10.080;2022-11-15T15:00:33;8.17;;;7.03;;
8409;SDS011;4242;53.670;10.080;2022-11-15T15:02:59;6.97;;;6.37;;
8409;SDS011;4242;53.670;10.080;2022-11-15T15:05:27;7.77;;;6.10;;
8409;SDS011;4242;53.670;10.080;2022-11-15T15:07:55;9.07;;;6.73;;
8409;SDS011;4242;53.670;10.080;2022-11-15T15:10:21;10.70;;;6.60;;
8409;SDS011;4242;53.670;10.080;2022-11-15T15:12:48;7.50;;;6.13;;
8409;SDS011;4242;53.670;10.080;2022-11-15T15:15:16;7.60;;;6.73;;
8409;SDS011;4242;53.670;10.080;2022-11-15T15:17:42;7.30;;;6.60;;
8409;SDS011;4242;53.670;10.080;2022-11-15T15:20:09;7.53;;;6.83;;
8409;SDS011;4242;53.670;10.080;2022-11-15T15:22:35;8.47;;;6.97;;
8409;SDS011;4242;53.670;10.080;2022-11-15T15:25:01;8.30;;;6.30;;
8409;SDS011;4242;53.670;10.080;2022-11-15T15:27:29;8.33;;;7.33;;
8409;SDS011;4242;53.670;10.080;2022-11-15T15:29:55;8.37;;;7.57;;
8409;SDS011;4242;53.670;10.080;2022-11-15T15:32:21;7.67;;;6.73;;
8409;SDS011;4242;53.670;10.080;2022-11-15T15:34:47;8.20;;;6.80;;
8409;SDS011;4242;53.670;10.080;2022-11-15T15:39:39;7.90;;;7.10;;
8409;SDS011;4242;53.670;10.080;2022-11-15T15:42:05;8.97;;;7.13;;
8409;SDS011;4242;53.670;10.080;2022-11-15T15:44:31;7.90;;;7.07;;
8409;SDS011;4242;53.670;10.080;2022-11-15T15:46:57;7.90;;;7.10;;
8409;SDS011;4242;53.670;10.080;2022-11-15T15:49:23;12.47;;;8.40;;
8409;SDS011;4242;53.670;10.080;2022-11-15T15:51:49;10.03;;;7.80;;
8409;SDS011;4242;53.670;10.080;2022-11-15T15:54:15;8.83;;;7.77;;
8409;SDS011;4242;53.670;10.080;2022-11-15T15:56:41;8.67;;;7.77;;
8409;SDS011;4242;53.670;10.080;2022-11-15T15:59:07;8.10;;;7.07;;
8409;SDS011;4242;53.670;10.080;2022-11-15T16:01:33;9.30;;;8.10;;
8409;SDS011;4242;53.670;10.080;2022-11-15T16:03:59;10.37;;;7.80;;
8409;SDS011;4242;53.670;10.080;2022-11-15T16:06:38;7.80;;;7.10;;
8409;SDS011;4242;53.670;10.080;2022-11-15T16:09:05;8.67;;;7.60;;
8409;SDS011;4242;53.670;10.080;2022-11-15T16:11:31;10.47;;;7.47;;
8409;SDS011;4242;53.670;10.080;2022-11-15T16:13:57;10.13;;;7.90;;
8409;SDS011;4242;53.670;10.080;2022-11-15T16:16:23;10.53;;;7.70;;
8409;SDS011;4242;53.670;10.080;2022-11-15T16:18:49;8.27;;;6.97;;
8409;SDS011;4242;53.670;10.080;2022-11-15T16:21:15;9.27;;;7.20;;
8409;SDS011;4242;53.670;10.080;2022-11-15T16:23:41;9.13;;;7.60;;
8409;SDS011;4242;53.670;10.080;2022-11-15T16:26:19;9.20;;;7.00;;
8409;SDS011;4242;53.670;10.080;2022-11-15T16:28:46;9.73;;;7.40;;
8409;SDS011;4242;53.670;10.080;2022-11-15T16:31:12;11.77;;;8.37;;
8409;SDS011;4242;53.670;10.080;2022-11-15T16:33:39;12.23;;;7.63;;
8409;SDS011;4242;53.670;10.080;2022-11-15T16:36:06;8.97;;;7.90;;
8409;SDS011;4242;53.670;10.080;2022-11-15T16:38:32;9.80;;;7.80;;
8409;SDS011;4242;53.670;10.080;2022-11-15T16:40:58;10.80;;;7.90;;
8409;SDS011;4242;53.670;10.080;2022-11-15T16:43:24;9.20;;;7.80;;
8409;SDS011;4242;53.670;10.080;2022-11-15T16:45:50;9.40;;;7.63;;
8409;SDS011;4242;53.670;10.080;2022-11-15T16:48:23;8.03;;;7.20;;
8409;SDS011;4242;53.670;10.080;2022-11-15T16:50:49;10.80;;;7.73;;
8409;SDS011;4242;53.670;10.080;2022-11-15T16:53:15;9.60;;;7.80;;